Date,TemperatureHighF,TemperatureAvgF,TemperatureLowF,DewpointHighF,DewpointAvgF,DewpointLowF,HumidityHigh,HumidityAvg,HumidityLow,PressureMaxIn,PressureMinIn,WindSpeedMaxMPH,WindSpeedAvgMPH,GustSpeedMaxMPH,PrecipitationSumIn
2013-9-1,93.0,77.9,71.4,70.0,67.0,64.0,86,71,40,29.85,29.71,9,1,17,1.42
2013-9-2,89.8,78.2,70.5,72.5,68.4,65.0,91,74,47,29.83,29.73,6,1,9,0.01
2013-9-3,91.8,79.1,71.8,72.8,67.9,62.8,87,70,39,29.90,29.74,5,0,7,0.03
2013-9-4,89.1,76.3,66.9,68.4,62.6,57.5,81,65,35,30.05,29.89,5,1,9,0.00
2013-9-5,92.3,75.8,66.0,64.9,57.0,32.2,83,58,13,30.05,29.96,5,0,11,0.00
2013-9-6,83.3,72.2,63.1,59.6,53.9,45.2,78,56,27,30.14,30.03,4,1,11,0.00
2013-9-7,87.6,71.1,59.4,59.7,55.4,50.6,80,61,29,30.11,29.93,4,0,8,0.00
2013-9-8,92.1,75.2,63.5,63.0,56.2,41.1,80,57,18,29.95,29.84,2,0,6,0.00
2013-9-9,90.0,76.8,66.6,66.2,60.0,52.0,81,60,29,30.11,29.95,7,1,13,0.00
2013-9-10,95.2,78.7,67.8,68.5,60.7,48.3,82,58,21,30.19,30.08,4,0,6,0.00
2013-9-11,92.7,77.7,67.5,66.1,61.4,50.5,80,60,24,30.17,30.02,6,1,10,0.00
2013-9-12,93.6,78.7,70.3,67.1,63.3,59.7,78,61,33,30.04,29.75,7,1,11,0.00
2013-9-13,89.1,76.0,65.5,66.4,56.3,40.4,82,55,20,29.86,29.69,4,0,8,0.00
2013-9-14,79.0,67.2,59.5,50.3,43.2,32.1,70,44,19,30.11,29.85,8,1,13,0.00
2013-9-15,82.9,67.1,53.2,55.7,49.2,43.0,77,57,25,30.20,30.07,4,0,7,0.00
2013-9-16,89.2,74.3,64.4,69.6,56.6,44.2,85,59,21,30.16,29.97,11,1,19,0.04
2013-9-17,79.2,68.7,61.2,51.4,43.2,29.0,68,43,17,30.28,30.16,10,2,17,0.00
2013-9-18,74.7,62.2,51.3,47.2,39.7,15.8,76,49,11,30.29,30.13,6,1,9,0.00
2013-9-19,78.4,65.6,54.9,57.0,51.3,45.7,80,62,33,30.17,30.04,3,0,5,0.01
2013-9-20,70.5,67.6,63.7,61.9,59.1,55.6,81,74,69,30.06,29.93,4,0,9,0.15
2013-9-21,78.4,70.6,65.5,66.5,63.5,57.7,87,79,60,29.93,29.68,4,0,10,0.44
2013-9-22,79.3,68.6,60.1,62.8,55.7,46.1,88,67,32,29.87,29.67,8,1,12,0.42
2013-9-23,74.1,63.0,54.0,52.3,47.4,40.6,79,60,34,30.05,29.87,6,0,10,0.00
2013-9-24,80.4,64.1,54.3,53.6,49.6,43.8,80,62,28,30.08,29.90,4,0,8,0.00
2013-9-25,74.3,63.7,52.2,57.2,52.0,45.2,81,67,41,29.93,29.82,2,0,5,0.00
2013-9-26,79.3,66.7,57.9,57.4,50.4,34.5,81,60,20,30.00,29.83,7,1,12,0.00
2013-9-27,75.6,63.1,52.5,55.8,47.7,42.0,82,60,31,30.17,30.00,10,1,15,0.00
2013-9-28,73.8,61.8,51.1,53.7,46.1,39.9,81,59,30,30.23,30.12,9,1,16,0.00
2013-9-29,75.2,61.8,51.1,53.6,45.2,35.0,80,59,24,30.15,29.98,4,0,10,0.00
2013-9-30,79.7,62.7,51.6,56.0,47.2,38.8,80,61,24,30.08,29.94,4,0,8,0.00